Amboy, Indiana
Current Conditions -  °F | °C
As of 4:35 PM on Saturday 25 Oct 2014 (Local Time) from KOKK Reporting Station
Clear Clear  
Wind Chill: 70°   Ceiling: Unl
Heat Index: 70°   Visibility: 10mi
Dew Point: 52°   Wind: 16mph
Humidity: 53%   Direction: 290°WNW
Pressure: 29.91"   Gusts: 21mph
Location:  40.6°N, 85.93°W
Report Text: KOKK 252035Z AUTO 29014G18KT 10SM CLR 21/11 A2991 RMK AO1
Loading
Personal Weather Stations






























Interactive Weather Map
Tropical Storm Tracking
New forecast layout! Learn more

10-Day Weather Forecast

Advertisements
Track Severe Weather on mobile